createdAt,value
2022-09-16T00:03:55.614Z,100115.66
2022-09-16T00:11:34.413Z,100122.88
2022-09-16T00:19:08.108Z,100113.03
2022-09-16T00:26:43.491Z,100112.16
2022-09-16T00:34:17.235Z,100114.88
2022-09-16T00:41:52.297Z,100122.97
2022-09-16T00:49:27.677Z,100135.47
2022-09-16T00:57:04.841Z,100130.13
2022-09-16T01:04:44.664Z,100122.13
2022-09-16T01:12:19.804Z,100123.94
2022-09-16T01:20:11.516Z,100133.75
2022-09-16T01:28:13.126Z,100138.22
2022-09-16T01:36:04.899Z,100127.56
2022-09-16T01:43:48.466Z,100135.59
2022-09-16T01:51:29.064Z,100132.94
2022-09-16T01:59:09.467Z,100127.59
2022-09-16T02:06:47.447Z,100132.03
2022-09-16T02:14:25.210Z,100124.94
2022-09-16T02:22:04.973Z,100125.84
2022-09-16T02:29:42.897Z,100123.16
2022-09-16T02:37:23.253Z,100122.25
2022-09-16T02:44:58.250Z,100113.31
2022-09-16T02:52:37.348Z,100121.38
2022-09-16T03:00:11.960Z,100119.59
2022-09-16T03:07:47.351Z,100115.16
2022-09-16T03:15:41.979Z,100113.34
2022-09-16T03:23:24.412Z,100123.19
2022-09-16T03:31:04.828Z,100118.69
2022-09-16T03:38:42.205Z,100116.91
2022-09-16T03:46:15.857Z,100116.03
2022-09-16T03:53:50.908Z,100101.78
2022-09-16T04:01:24.457Z,100105.31
2022-09-16T04:09:01.130Z,100102.69
2022-09-16T04:16:35.240Z,100108.03
2022-09-16T04:24:13.124Z,100108.84
2022-09-16T04:31:47.330Z,100118.69
2022-09-16T04:39:22.706Z,100107.97
2022-09-16T04:46:56.415Z,100104.41
2022-09-16T04:54:31.478Z,100091.94
2022-09-16T05:02:06.445Z,100098.16
2022-09-16T05:09:41.538Z,100097.28
2022-09-16T05:17:33.176Z,100098.16
2022-09-16T05:25:10.837Z,100095.47
2022-09-16T05:32:44.502Z,100099.06
2022-09-16T05:40:22.922Z,100100.81
2022-09-16T05:47:56.706Z,100098.16
2022-09-16T05:55:31.948Z,100103.50
2022-09-16T06:03:05.684Z,100104.44
2022-09-16T06:10:41.554Z,100105.34
2022-09-16T06:18:16.322Z,100096.41
2022-09-16T06:26:00.472Z,100096.41
2022-09-16T06:33:34.693Z,100104.44
2022-09-16T06:41:11.324Z,100092.81
2022-09-16T06:48:46.572Z,100089.22
2022-09-16T06:56:22.608Z,100098.97
2022-09-16T07:03:58.301Z,100099.84
2022-09-16T07:11:34.038Z,100106.06
2022-09-16T07:19:08.530Z,100101.56
2022-09-16T07:26:44.747Z,100099.66
2022-09-16T07:34:18.668Z,100107.66
2022-09-16T07:41:53.688Z,100113.00
2022-09-16T07:49:27.626Z,100116.53
2022-09-16T07:57:02.695Z,100121.72
2022-09-16T08:04:36.348Z,100118.00
2022-09-16T08:12:12.779Z,100128.75
2022-09-16T08:19:46.471Z,100124.16
2022-09-16T08:27:21.495Z,100124.94
2022-09-16T08:34:55.043Z,100116.78
2022-09-16T08:42:57.055Z,100108.38
2022-09-16T08:50:36.911Z,100108.03
2022-09-16T08:58:17.071Z,100113.16
2022-09-16T09:05:53.721Z,100108.53
2022-09-16T09:14:08.460Z,100102.78
2022-09-16T09:21:53.721Z,100102.13
2022-09-16T09:29:45.868Z,100091.94
2022-09-16T09:37:37.945Z,100099.91
2022-09-16T09:45:20.470Z,100087.25
2022-09-16T09:53:01.104Z,100086.22
2022-09-16T10:00:36.332Z,100084.66
2022-09-16T10:08:17.180Z,100072.81
2022-09-16T10:15:55.614Z,100078.94
2022-09-16T10:23:30.543Z,100064.66
2022-09-16T10:31:08.898Z,100080.03
2022-09-16T10:38:45.557Z,100068.91
2022-09-16T10:46:21.485Z,100076.31
2022-09-16T10:53:57.531Z,100066.59
2022-09-16T11:01:46.271Z,100062.22
2022-09-16T11:09:30.799Z,100055.56
2022-09-16T11:17:19.568Z,100052.53
2022-09-16T11:25:09.784Z,100066.47
2022-09-16T11:33:07.004Z,100054.19
2022-09-16T11:40:53.397Z,100045.66
2022-09-16T11:48:42.738Z,100042.38
2022-09-16T11:56:20.690Z,100021.72
2022-09-16T12:04:01.705Z,100018.31
2022-09-16T12:11:38.398Z,100012.00
2022-09-16T12:22:47.419Z,100018.38
2022-09-16T12:30:25.284Z,99997.88
2022-09-16T12:38:00.991Z,99982.28
2022-09-16T12:46:15.670Z,99985.13
2022-09-16T12:54:11.256Z,99981.94
2022-09-16T13:01:49.095Z,99966.34
2022-09-16T13:09:26.627Z,99966.78
2022-09-16T13:17:03.382Z,99947.59
2022-09-16T13:24:42.019Z,99947.09
2022-09-16T13:40:25.198Z,99939.22
2022-09-16T13:47:59.187Z,99928.56
2022-09-16T13:55:34.969Z,99931.50
2022-09-16T14:03:31.377Z,99927.03
2022-09-16T14:11:12.414Z,99933.78
2022-09-16T14:18:54.458Z,99925.81
2022-09-16T14:26:29.544Z,99923.88
2022-09-16T14:34:04.874Z,99918.13
2022-09-16T14:41:44.479Z,99906.94
2022-09-16T14:49:19.828Z,99907.22
2022-09-16T14:57:01.294Z,99894.97
2022-09-16T15:04:40.270Z,99897.81
2022-09-16T15:12:29.784Z,99890.31
2022-09-16T15:20:03.697Z,99886.19
2022-09-16T15:27:38.879Z,99879.16
2022-09-16T15:35:23.234Z,99872.78
2022-09-16T15:43:26.448Z,99875.47
2022-09-16T15:51:05.141Z,99871.94
2022-09-16T15:58:45.439Z,99882.13
2022-09-16T16:06:19.366Z,99880.31
2022-09-16T16:13:56.548Z,99871.88
2022-09-16T16:21:33.458Z,99877.72
2022-09-16T16:29:09.079Z,99871.66
2022-09-16T16:36:42.925Z,99864.56
2022-09-16T16:44:18.025Z,99890.13
2022-09-16T16:51:52.123Z,99897.81
2022-09-16T16:59:28.175Z,99893.81
2022-09-16T17:07:24.677Z,99887.91
2022-09-16T17:14:57.178Z,99902.63
2022-09-16T17:22:30.801Z,99903.97
2022-09-16T17:30:08.144Z,99891.63
2022-09-16T17:37:41.877Z,99897.44
2022-09-16T17:45:17.171Z,99902.97
2022-09-16T17:52:51.048Z,99892.44
2022-09-16T18:00:26.190Z,99885.41
2022-09-16T18:07:59.922Z,99883.94
2022-09-16T18:15:35.064Z,99886.78
2022-09-16T18:23:08.788Z,99884.31
2022-09-16T18:30:44.663Z,99882.50
2022-09-16T18:38:18.511Z,99881.81
2022-09-16T18:45:54.053Z,99887.31
2022-09-16T18:53:27.936Z,99889.13
2022-09-16T19:01:09.693Z,99891.78
2022-09-16T19:08:44.193Z,99895.38
2022-09-16T19:16:20.208Z,99882.91
2022-09-16T19:23:56.801Z,99885.81
2022-09-16T19:31:32.943Z,99893.28
2022-09-16T19:39:07.812Z,99879.19
2022-09-16T19:46:44.872Z,99898.94
2022-09-16T19:54:19.351Z,99886.56
2022-09-16T20:01:54.455Z,99882.38
2022-09-16T20:09:28.015Z,99847.72
2022-09-16T20:17:03.416Z,99823.72
2022-09-16T20:24:37.429Z,99823.91
2022-09-16T20:32:12.708Z,99817.69
2022-09-16T20:39:46.398Z,99813.28
2022-09-16T20:47:21.784Z,99813.34
2022-09-16T20:54:55.524Z,99817.91
2022-09-16T21:02:30.702Z,99809.09
2022-09-16T21:10:05.125Z,99806.50
2022-09-16T21:17:40.179Z,99811.94
2022-09-16T21:25:13.656Z,99805.72
2022-09-16T21:32:48.855Z,99816.44
2022-09-16T21:40:24.121Z,99821.81
2022-09-16T21:47:59.186Z,99823.56
2022-09-16T21:55:32.728Z,99827.16
2022-09-16T22:03:08.041Z,99834.28
2022-09-16T22:10:41.727Z,99844.97
2022-09-16T22:18:17.138Z,99847.66
2022-09-16T22:25:50.854Z,99853.00
2022-09-16T22:33:26.153Z,99854.78
2022-09-16T22:41:01.333Z,99850.34
2022-09-16T22:48:37.154Z,99851.22
2022-09-16T22:56:13.376Z,99851.22
2022-09-16T23:03:52.170Z,99863.72
2022-09-16T23:11:28.572Z,99861.91
2022-09-16T23:19:06.226Z,99867.25
2022-09-16T23:26:40.246Z,99859.25
2022-09-16T23:34:19.055Z,99874.41
2022-09-16T23:41:52.791Z,99879.75
2022-09-16T23:49:27.857Z,99880.63
2022-09-16T23:57:01.427Z,99894.88
